sensor_id;sensor_type;location;lat;lon;timestamp;pressure;altitude;pressure_sealevel;temperature;humidity
36600;BME280;35385;55.668;37.508;2023-07-16T00:00:41;99099.53;;;15.55;100.00
36600;BME280;35385;55.668;37.508;2023-07-16T00:01:41;99098.84;;;15.53;100.00
36600;BME280;35385;55.668;37.508;2023-07-16T00:02:42;99105.22;;;15.52;100.00
36600;BME280;35385;55.668;37.508;2023-07-16T00:03:42;99105.41;;;15.50;100.00
36600;BME280;35385;55.668;37.508;2023-07-16T00:04:42;99100.84;;;15.51;100.00
36600;BME280;35385;55.668;37.508;2023-07-16T00:05:43;99099.19;;;15.50;100.00
36600;BME280;35385;55.668;37.508;2023-07-16T00:06:43;99101.19;;;15.48;100.00
36600;BME280;35385;55.668;37.508;2023-07-16T00:07:43;99102.19;;;15.47;100.00
36600;BME280;35385;55.668;37.508;2023-07-16T00:08:44;99095.31;;;15.44;100.00
36600;BME280;35385;55.668;37.508;2023-07-16T00:09:44;99100.53;;;15.46;100.00
36600;BME280;35385;55.668;37.508;2023-07-16T00:10:45;99105.22;;;15.44;100.00
36600;BME280;35385;55.668;37.508;2023-07-16T00:11:45;99099.03;;;15.43;100.00
36600;BME280;35385;55.668;37.508;2023-07-16T00:12:45;99105.22;;;15.44;100.00
36600;BME280;35385;55.668;37.508;2023-07-16T00:13:46;99104.41;;;15.43;100.00
36600;BME280;35385;55.668;37.508;2023-07-16T00:14:47;99105.22;;;15.44;100.00
36600;BME280;35385;55.668;37.508;2023-07-16T00:15:48;99092.63;;;15.44;100.00
36600;BME280;35385;55.668;37.508;2023-07-16T00:16:48;99100.69;;;15.44;100.00
36600;BME280;35385;55.668;37.508;2023-07-16T00:17:49;99103.38;;;15.44;100.00
36600;BME280;35385;55.668;37.508;2023-07-16T00:18:49;99103.56;;;15.43;100.00
36600;BME280;35385;55.668;37.508;2023-07-16T00:19:49;99102.75;;;15.42;100.00
36600;BME280;35385;55.668;37.508;2023-07-16T00:20:50;99105.22;;;15.44;100.00
36600;BME280;35385;55.668;37.508;2023-07-16T00:21:50;99102.75;;;15.42;100.00
36600;BME280;35385;55.668;37.508;2023-07-16T00:22:51;99101.06;;;15.41;100.00
36600;BME280;35385;55.668;37.508;2023-07-16T00:23:51;99105.59;;;15.41;100.00
36600;BME280;35385;55.668;37.508;2023-07-16T00:24:52;99104.75;;;15.40;100.00
36600;BME280;35385;55.668;37.508;2023-07-16T00:25:52;99099.38;;;15.40;100.00
36600;BME280;35385;55.668;37.508;2023-07-16T00:26:53;99105.59;;;15.41;100.00
36600;BME280;35385;55.668;37.508;2023-07-16T00:27:53;99112.66;;;15.42;100.00
36600;BME280;35385;55.668;37.508;2023-07-16T00:28:53;99108.28;;;15.41;100.00
36600;BME280;35385;55.668;37.508;2023-07-16T00:29:54;99110.13;;;15.40;100.00
36600;BME280;35385;55.668;37.508;2023-07-16T00:30:54;99108.44;;;15.39;100.00
36600;BME280;35385;55.668;37.508;2023-07-16T00:31:55;99109.28;;;15.40;100.00
36600;BME280;35385;55.668;37.508;2023-07-16T00:32:55;99112.16;;;15.38;100.00
36600;BME280;35385;55.668;37.508;2023-07-16T00:33:55;99102.41;;;15.37;100.00
36600;BME280;35385;55.668;37.508;2023-07-16T00:34:56;99104.25;;;15.37;100.00
36600;BME280;35385;55.668;37.508;2023-07-16T00:35:56;99100.03;;;15.34;100.00
36600;BME280;35385;55.668;37.508;2023-07-16T00:36:56;99104.59;;;15.34;100.00
36600;BME280;35385;55.668;37.508;2023-07-16T00:38:01;99101.03;;;15.33;100.00
36600;BME280;35385;55.668;37.508;2023-07-16T00:39:02;99097.50;;;15.33;100.00
36600;BME280;35385;55.668;37.508;2023-07-16T00:40:02;99097.50;;;15.33;100.00
36600;BME280;35385;55.668;37.508;2023-07-16T00:41:03;99108.28;;;15.33;100.00
36600;BME280;35385;55.668;37.508;2023-07-16T00:42:04;99108.63;;;15.30;100.00
36600;BME280;35385;55.668;37.508;2023-07-16T00:43:04;99107.81;;;15.29;100.00
36600;BME280;35385;55.668;37.508;2023-07-16T00:44:04;99110.13;;;15.32;100.00
36600;BME280;35385;55.668;37.508;2023-07-16T00:45:08;99106.59;;;15.32;100.00
36600;BME280;35385;55.668;37.508;2023-07-16T00:46:09;99112.66;;;15.34;100.00
36600;BME280;35385;55.668;37.508;2023-07-16T00:47:10;99113.31;;;15.36;100.00
36600;BME280;35385;55.668;37.508;2023-07-16T00:48:11;99116.00;;;15.36;100.00
36600;BME280;35385;55.668;37.508;2023-07-16T00:49:12;99116.69;;;15.38;100.00
36600;BME280;35385;55.668;37.508;2023-07-16T00:50:12;99110.31;;;15.39;100.00
36600;BME280;35385;55.668;37.508;2023-07-16T00:51:13;99115.69;;;15.39;100.00
36600;BME280;35385;55.668;37.508;2023-07-16T00:52:16;99114.69;;;15.40;100.00
36600;BME280;35385;55.668;37.508;2023-07-16T00:53:18;99122.22;;;15.44;100.00
36600;BME280;35385;55.668;37.508;2023-07-16T00:54:19;99115.66;;;15.47;100.00
36600;BME280;35385;55.668;37.508;2023-07-16T00:55:20;99111.97;;;15.48;100.00
36600;BME280;35385;55.668;37.508;2023-07-16T00:56:20;99122.38;;;15.51;100.00
36600;BME280;35385;55.668;37.508;2023-07-16T00:57:21;99118.69;;;15.52;100.00
36600;BME280;35385;55.668;37.508;2023-07-16T00:58:22;99108.59;;;15.54;100.00
36600;BME280;35385;55.668;37.508;2023-07-16T00:59:22;99118.38;;;15.55;100.00
36600;BME280;35385;55.668;37.508;2023-07-16T01:00:23;99114.69;;;15.56;100.00
36600;BME280;35385;55.668;37.508;2023-07-16T01:01:23;99110.97;;;15.57;100.00
36600;BME280;35385;55.668;37.508;2023-07-16T01:02:23;99117.38;;;15.56;100.00
36600;BME280;35385;55.668;37.508;2023-07-16T01:03:24;99119.22;;;15.55;100.00
36600;BME280;35385;55.668;37.508;2023-07-16T01:04:24;99123.78;;;15.55;100.00
36600;BME280;35385;55.668;37.508;2023-07-16T01:05:25;99122.75;;;15.56;100.00
36600;BME280;35385;55.668;37.508;2023-07-16T01:06:35;99120.75;;;15.58;100.00
36600;BME280;35385;55.668;37.508;2023-07-16T01:07:37;99123.44;;;15.58;100.00
36600;BME280;35385;55.668;37.508;2023-07-16T01:09:41;99125.09;;;15.59;100.00
36600;BME280;35385;55.668;37.508;2023-07-16T01:10:42;99122.38;;;15.59;100.00
36600;BME280;35385;55.668;37.508;2023-07-16T01:11:43;99132.16;;;15.60;100.00
36600;BME280;35385;55.668;37.508;2023-07-16T01:12:43;99132.31;;;15.59;100.00
36600;BME280;35385;55.668;37.508;2023-07-16T01:13:44;99127.13;;;15.57;100.00
36600;BME280;35385;55.668;37.508;2023-07-16T01:14:45;99127.97;;;15.58;100.00
36600;BME280;35385;55.668;37.508;2023-07-16T01:15:45;99139.75;;;15.57;100.00
36600;BME280;35385;55.668;37.508;2023-07-16T01:16:46;99132.69;;;15.55;100.00
36600;BME280;35385;55.668;37.508;2023-07-16T01:17:46;99130.13;;;15.54;100.00
36600;BME280;35385;55.668;37.508;2023-07-16T01:18:47;99124.06;;;15.52;100.00
36600;BME280;35385;55.668;37.508;2023-07-16T01:19:47;99135.16;;;15.49;100.00
36600;BME280;35385;55.668;37.508;2023-07-16T01:20:48;99126.25;;;15.48;100.00
36600;BME280;35385;55.668;37.508;2023-07-16T01:21:51;99122.03;;;15.46;100.00
36600;BME280;35385;55.668;37.508;2023-07-16T01:26:35;99127.44;;;15.38;100.00
36600;BME280;35385;55.668;37.508;2023-07-16T01:30:08;99139.56;;;15.34;100.00
36600;BME280;35385;55.668;37.508;2023-07-16T01:31:09;99131.66;;;15.32;100.00
36600;BME280;35385;55.668;37.508;2023-07-16T01:32:10;99134.03;;;15.27;100.00
36600;BME280;35385;55.668;37.508;2023-07-16T01:33:12;99129.66;;;15.18;100.00
36600;BME280;35385;55.668;37.508;2023-07-16T01:34:13;99139.94;;;15.14;100.00
36600;BME280;35385;55.668;37.508;2023-07-16T01:35:14;99132.50;;;15.08;100.00
36600;BME280;35385;55.668;37.508;2023-07-16T01:36:14;99141.91;;;15.04;100.00
36600;BME280;35385;55.668;37.508;2023-07-16T01:37:16;99140.22;;;15.03;100.00
36600;BME280;35385;55.668;37.508;2023-07-16T01:38:16;99134.84;;;15.03;100.00
36600;BME280;35385;55.668;37.508;2023-07-16T01:39:18;99139.06;;;15.06;100.00
36600;BME280;35385;55.668;37.508;2023-07-16T01:40:19;99138.91;;;15.07;100.00
36600;BME280;35385;55.668;37.508;2023-07-16T01:41:19;99138.22;;;15.05;100.00
36600;BME280;35385;55.668;37.508;2023-07-16T01:42:20;99141.91;;;15.04;100.00
36600;BME280;35385;55.668;37.508;2023-07-16T01:43:20;99141.91;;;15.04;100.00
36600;BME280;35385;55.668;37.508;2023-07-16T01:44:21;99136.53;;;15.04;100.00
36600;BME280;35385;55.668;37.508;2023-07-16T01:45:21;99141.75;;;15.06;100.00
36600;BME280;35385;55.668;37.508;2023-07-16T01:46:21;99141.91;;;15.04;100.00
36600;BME280;35385;55.668;37.508;2023-07-16T01:47:24;99145.97;;;15.00;100.00
36600;BME280;35385;55.668;37.508;2023-07-16T01:48:33;99141.59;;;14.99;100.00
36600;BME280;35385;55.668;37.508;2023-07-16T01:49:34;99145.28;;;14.98;100.00
36600;BME280;35385;55.668;37.508;2023-07-16T01:50:35;99139.25;;;14.96;100.00
36600;BME280;35385;55.668;37.508;2023-07-16T01:51:35;99137.88;;;14.92;100.00
36600;BME280;35385;55.668;37.508;2023-07-16T01:52:35;99144.59;;;14.88;100.00
36600;BME280;35385;55.668;37.508;2023-07-16T01:53:36;99146.28;;;14.89;100.00
36600;BME280;35385;55.668;37.508;2023-07-16T01:54:36;99147.28;;;14.88;100.00
36600;BME280;35385;55.668;37.508;2023-07-16T01:55:36;99143.91;;;14.86;100.00
36600;BME280;35385;55.668;37.508;2023-07-16T01:56:37;99146.59;;;14.86;100.00
36600;BME280;35385;55.668;37.508;2023-07-16T01:57:37;99146.59;;;14.86;100.00
36600;BME280;35385;55.668;37.508;2023-07-16T01:58:38;99147.28;;;14.88;100.00
36600;BME280;35385;55.668;37.508;2023-07-16T01:59:38;99142.06;;;14.86;100.00
36600;BME280;35385;55.668;37.508;2023-07-16T02:00:38;99143.75;;;14.88;100.00
36600;BME280;35385;55.668;37.508;2023-07-16T02:01:39;99146.59;;;14.86;100.00
36600;BME280;35385;55.668;37.508;2023-07-16T02:02:39;99139.22;;;14.88;100.00
36600;BME280;35385;55.668;37.508;2023-07-16T02:03:40;99141.75;;;14.90;100.00
36600;BME280;35385;55.668;37.508;2023-07-16T02:04:40;99146.63;;;14.94;100.00
36600;BME280;35385;55.668;37.508;2023-07-16T02:05:40;99144.25;;;14.91;100.00
36600;BME280;35385;55.668;37.508;2023-07-16T02:06:41;99143.25;;;14.92;100.00
36600;BME280;35385;55.668;37.508;2023-07-16T02:07:41;99144.94;;;14.93;100.00
36600;BME280;35385;55.668;37.508;2023-07-16T02:08:41;99148.31;;;14.95;100.00
36600;BME280;35385;55.668;37.508;2023-07-16T02:09:42;99147.13;;;14.98;100.00
36600;BME280;35385;55.668;37.508;2023-07-16T02:10:42;99153.38;;;14.98;100.00
36600;BME280;35385;55.668;37.508;2023-07-16T02:11:43;99154.69;;;15.02;100.00
36600;BME280;35385;55.668;37.508;2023-07-16T02:12:43;99160.25;;;15.09;100.00
36600;BME280;35385;55.668;37.508;2023-07-16T02:13:43;99157.22;;;15.12;100.00
36600;BME280;35385;55.668;37.508;2023-07-16T02:14:44;99154.03;;;15.16;100.00
36600;BME280;35385;55.668;37.508;2023-07-16T02:15:44;99156.38;;;15.19;100.00
36600;BME280;35385;55.668;37.508;2023-07-16T02:16:45;99155.03;;;15.24;100.00
36600;BME280;35385;55.668;37.508;2023-07-16T02:17:45;99156.56;;;15.26;100.00
36600;BME280;35385;55.668;37.508;2023-07-16T02:18:45;99148.97;;;15.30;100.00
36600;BME280;35385;55.668;37.508;2023-07-16T02:19:46;99149.66;;;15.32;100.00
36600;BME280;35385;55.668;37.508;2023-07-16T02:20:46;99149.31;;;15.35;100.00
36600;BME280;35385;55.668;37.508;2023-07-16T02:21:46;99152.34;;;15.32;100.00
36600;BME280;35385;55.668;37.508;2023-07-16T02:22:47;99145.28;;;15.31;100.00
36600;BME280;35385;55.668;37.508;2023-07-16T02:23:47;99150.16;;;15.35;100.00
36600;BME280;35385;55.668;37.508;2023-07-16T02:24:48;99153.53;;;15.37;100.00
36600;BME280;35385;55.668;37.508;2023-07-16T02:25:48;99152.69;;;15.37;100.00
36600;BME280;35385;55.668;37.508;2023-07-16T02:26:48;99160.06;;;15.35;100.00
36600;BME280;35385;55.668;37.508;2023-07-16T02:27:49;99154.69;;;15.35;100.00
36600;BME280;35385;55.668;37.508;2023-07-16T02:28:49;99153.53;;;15.37;100.00
36600;BME280;35385;55.668;37.508;2023-07-16T02:29:49;99154.03;;;15.41;100.00
36600;BME280;35385;55.668;37.508;2023-07-16T02:30:50;99152.50;;;15.46;100.00
36600;BME280;35385;55.668;37.508;2023-07-16T02:31:51;99163.25;;;15.46;100.00
36600;BME280;35385;55.668;37.508;2023-07-16T02:32:51;99161.41;;;15.47;100.00
36600;BME280;35385;55.668;37.508;2023-07-16T02:33:52;99166.47;;;15.50;100.00
36600;BME280;35385;55.668;37.508;2023-07-16T02:34:52;99162.13;;;15.57;100.00
36600;BME280;35385;55.668;37.508;2023-07-16T02:35:52;99157.38;;;15.59;100.00
36600;BME280;35385;55.668;37.508;2023-07-16T02:36:53;99154.69;;;15.59;100.00
36600;BME280;35385;55.668;37.508;2023-07-16T02:37:53;99158.72;;;15.63;100.00
36600;BME280;35385;55.668;37.508;2023-07-16T02:38:53;99158.72;;;15.63;100.00
36600;BME280;35385;55.668;37.508;2023-07-16T02:39:54;99164.13;;;15.63;100.00
36600;BME280;35385;55.668;37.508;2023-07-16T02:40:54;99152.16;;;15.66;100.00
36600;BME280;35385;55.668;37.508;2023-07-16T02:41:55;99163.13;;;15.72;100.00
36600;BME280;35385;55.668;37.508;2023-07-16T02:42:55;99162.41;;;15.78;100.00
36600;BME280;35385;55.668;37.508;2023-07-16T02:44:03;99168.28;;;15.82;100.00
36600;BME280;35385;55.668;37.508;2023-07-16T02:45:04;99160.72;;;15.85;100.00
36600;BME280;35385;55.668;37.508;2023-07-16T02:46:04;99161.38;;;15.87;100.00
36600;BME280;35385;55.668;37.508;2023-07-16T02:47:05;99164.56;;;15.91;100.00
36600;BME280;35385;55.668;37.508;2023-07-16T02:48:05;99159.19;;;15.91;100.00
36600;BME280;35385;55.668;37.508;2023-07-16T02:49:06;99157.81;;;15.95;100.00
36600;BME280;35385;55.668;37.508;2023-07-16T02:50:06;99163.72;;;15.99;100.00
36600;BME280;35385;55.668;37.508;2023-07-16T02:51:07;99164.38;;;16.01;100.00
36600;BME280;35385;55.668;37.508;2023-07-16T02:52:07;99163.88;;;15.97;100.00
36600;BME280;35385;55.668;37.508;2023-07-16T02:53:08;99169.78;;;15.93;100.00
36600;BME280;35385;55.668;37.508;2023-07-16T02:54:08;99158.66;;;15.96;100.00
36600;BME280;35385;55.668;37.508;2023-07-16T02:55:09;99160.00;;;16.00;100.00
36600;BME280;35385;55.668;37.508;2023-07-16T02:56:09;99166.75;;;15.96;100.00
36600;BME280;35385;55.668;37.508;2023-07-16T02:57:09;99168.09;;;15.91;100.00
36600;BME280;35385;55.668;37.508;2023-07-16T02:58:10;99165.06;;;15.95;100.00
36600;BME280;35385;55.668;37.508;2023-07-16T02:59:10;99169.78;;;16.01;100.00
36600;BME280;35385;55.668;37.508;2023-07-16T03:00:11;99177.00;;;16.00;100.00
36600;BME280;35385;55.668;37.508;2023-07-16T03:01:12;99172.13;;;15.96;100.00
36600;BME280;35385;55.668;37.508;2023-07-16T03:02:12;99168.59;;;15.95;100.00
36600;BME280;35385;55.668;37.508;2023-07-16T03:03:13;99169.78;;;16.01;100.00
36600;BME280;35385;55.668;37.508;2023-07-16T03:04:13;99167.72;;;16.03;100.00
36600;BME280;35385;55.668;37.508;2023-07-16T03:05:13;99178.16;;;16.06;100.00
36600;BME280;35385;55.668;37.508;2023-07-16T03:06:14;99165.69;;;16.13;100.00
36600;BME280;35385;55.668;37.508;2023-07-16T03:07:14;99171.38;;;16.18;100.00
36600;BME280;35385;55.668;37.508;2023-07-16T03:08:14;99171.03;;;16.21;100.00
36600;BME280;35385;55.668;37.508;2023-07-16T03:09:15;99168.66;;;16.26;100.00
36600;BME280;35385;55.668;37.508;2023-07-16T03:10:15;99175.69;;;16.35;100.00
36600;BME280;35385;55.668;37.508;2023-07-16T03:11:16;99177.69;;;16.41;100.00
36600;BME280;35385;55.668;37.508;2023-07-16T03:12:16;99175.47;;;16.45;100.00
36600;BME280;35385;55.668;37.508;2023-07-16T03:13:16;99166.03;;;16.49;100.00
36600;BME280;35385;55.668;37.508;2023-07-16T03:14:17;99170.72;;;16.55;100.00
36600;BME280;35385;55.668;37.508;2023-07-16T03:15:17;99173.91;;;16.58;100.00
36600;BME280;35385;55.668;37.508;2023-07-16T03:16:17;99176.59;;;16.58;100.00
36600;BME280;35385;55.668;37.508;2023-07-16T03:17:18;99174.53;;;16.60;100.00
36600;BME280;35385;55.668;37.508;2023-07-16T03:18:18;99175.38;;;16.61;100.00
36600;BME280;35385;55.668;37.508;2023-07-16T03:19:19;99177.41;;;16.67;100.00
36600;BME280;35385;55.668;37.508;2023-07-16T03:20:19;99178.94;;;16.70;100.00
36600;BME280;35385;55.668;37.508;2023-07-16T03:21:20;99170.66;;;16.71;100.00
36600;BME280;35385;55.668;37.508;2023-07-16T03:22:20;99181.06;;;16.74;100.00
36600;BME280;35385;55.668;37.508;2023-07-16T03:23:21;99174.84;;;16.74;100.00
36600;BME280;35385;55.668;37.508;2023-07-16T03:24:21;99175.22;;;16.71;100.00
36600;BME280;35385;55.668;37.508;2023-07-16T03:25:21;99180.97;;;16.68;100.00
36600;BME280;35385;55.668;37.508;2023-07-16T03:26:22;99180.13;;;16.67;100.00
36600;BME280;35385;55.668;37.508;2023-07-16T03:27:22;99185.34;;;16.69;100.00
36600;BME280;35385;55.668;37.508;2023-07-16T03:28:22;99175.38;;;16.69;100.00
36600;BME280;35385;55.668;37.508;2023-07-16T03:29:23;99182.28;;;16.72;100.00
36600;BME280;35385;55.668;37.508;2023-07-16T03:30:23;99178.59;;;16.73;100.00
36600;BME280;35385;55.668;37.508;2023-07-16T03:31:23;99187.97;;;16.77;100.00
36600;BME280;35385;55.668;37.508;2023-07-16T03:32:24;99191.50;;;16.77;100.00
36600;BME280;35385;55.668;37.508;2023-07-16T03:33:24;99192.00;;;16.81;100.00
36600;BME280;35385;55.668;37.508;2023-07-16T03:34:25;99187.28;;;16.83;100.00
36600;BME280;35385;55.668;37.508;2023-07-16T03:35:25;99186.09;;;16.85;100.00
36600;BME280;35385;55.668;37.508;2023-07-16T03:36:25;99187.59;;;16.88;100.00
36600;BME280;35385;55.668;37.508;2023-07-16T03:37:26;99191.31;;;16.87;100.00
36600;BME280;35385;55.668;37.508;2023-07-16T03:38:26;99188.78;;;16.85;100.00
36600;BME280;35385;55.668;37.508;2023-07-16T03:39:26;99188.59;;;16.87;100.00
36600;BME280;35385;55.668;37.508;2023-07-16T03:40:27;99191.94;;;16.89;100.00
36600;BME280;35385;55.668;37.508;2023-07-16T03:41:27;99191.59;;;16.92;100.00
36600;BME280;35385;55.668;37.508;2023-07-16T03:42:28;99197.47;;;16.95;100.00
36600;BME280;35385;55.668;37.508;2023-07-16T03:43:28;99191.56;;;17.00;100.00
36600;BME280;35385;55.668;37.508;2023-07-16T03:44:29;99188.53;;;16.95;100.00
36600;BME280;35385;55.668;37.508;2023-07-16T03:45:29;99190.22;;;16.96;100.00
36600;BME280;35385;55.668;37.508;2023-07-16T03:46:30;99194.78;;;16.95;100.00
36600;BME280;35385;55.668;37.508;2023-07-16T03:47:30;99192.25;;;16.94;100.00
36600;BME280;35385;55.668;37.508;2023-07-16T03:48:30;99193.09;;;16.94;100.00
36600;BME280;35385;55.668;37.508;2023-07-16T03:49:31;99192.59;;;16.91;100.00
36600;BME280;35385;55.668;37.508;2023-07-16T03:50:31;99193.06;;;16.72;100.00
36600;BME280;35385;55.668;37.508;2023-07-16T03:51:31;99186.00;;;16.71;100.00
36600;BME280;35385;55.668;37.508;2023-07-16T03:52:32;99191.56;;;16.69;100.00
36600;BME280;35385;55.668;37.508;2023-07-16T03:53:32;99190.91;;;16.67;100.00
36600;BME280;35385;55.668;37.508;2023-07-16T03:54:33;99192.94;;;16.65;100.00
36600;BME280;35385;55.668;37.508;2023-07-16T03:55:33;99192.41;;;16.70;100.00
36600;BME280;35385;55.668;37.508;2023-07-16T03:56:33;99193.44;;;16.69;100.00
36600;BME280;35385;55.668;37.508;2023-07-16T03:57:34;99196.13;;;16.69;100.00
36600;BME280;35385;55.668;37.508;2023-07-16T03:58:34;99190.66;;;16.77;100.00
36600;BME280;35385;55.668;37.508;2023-07-16T03:59:34;99190.31;;;16.80;100.00
36600;BME280;35385;55.668;37.508;2023-07-16T04:00:35;99189.16;;;16.74;100.00
36600;BME280;35385;55.668;37.508;2023-07-16T04:01:35;99193.06;;;16.72;100.00
36600;BME280;35385;55.668;37.508;2023-07-16T04:02:36;99184.16;;;16.71;100.00
36600;BME280;35385;55.668;37.508;2023-07-16T04:03:36;99195.38;;;16.83;100.00
36600;BME280;35385;55.668;37.508;2023-07-16T04:04:36;99199.06;;;16.82;100.00
36600;BME280;35385;55.668;37.508;2023-07-16T04:05:37;99196.31;;;16.90;100.00
36600;BME280;35385;55.668;37.508;2023-07-16T04:06:37;99197.31;;;16.97;100.00
36600;BME280;35385;55.668;37.508;2023-07-16T04:07:37;99194.94;;;16.94;100.00
36600;BME280;35385;55.668;37.508;2023-07-16T04:08:38;99199.34;;;16.95;100.00
36600;BME280;35385;55.668;37.508;2023-07-16T04:09:38;99191.84;;;17.05;100.00
36600;BME280;35385;55.668;37.508;2023-07-16T04:10:39;99195.19;;;17.07;100.00
36600;BME280;35385;55.668;37.508;2023-07-16T04:11:39;99190.72;;;17.00;100.00
36600;BME280;35385;55.668;37.508;2023-07-16T04:12:40;99191.16;;;17.03;100.00
36600;BME280;35385;55.668;37.508;2023-07-16T04:13:40;99203.59;;;17.12;100.00
36600;BME280;35385;55.668;37.508;2023-07-16T04:14:40;99208.25;;;17.18;100.00
36600;BME280;35385;55.668;37.508;2023-07-16T04:15:41;99200.09;;;17.04;100.00
36600;BME280;35385;55.668;37.508;2023-07-16T04:16:41;99195.63;;;16.96;100.00
36600;BME280;35385;55.668;37.508;2023-07-16T04:17:41;99196.28;;;16.98;100.00
36600;BME280;35385;55.668;37.508;2023-07-16T04:18:42;99197.13;;;16.99;100.00
36600;BME280;35385;55.668;37.508;2023-07-16T04:19:42;99198.25;;;17.04;100.00
36600;BME280;35385;55.668;37.508;2023-07-16T04:20:42;99205.94;;;17.15;100.00
36600;BME280;35385;55.668;37.508;2023-07-16T04:21:43;99192.75;;;17.20;100.00
36600;BME280;35385;55.668;37.508;2023-07-16T04:22:43;99205.34;;;17.28;100.00
36600;BME280;35385;55.668;37.508;2023-07-16T04:23:43;99205.09;;;17.38;100.00
36600;BME280;35385;55.668;37.508;2023-07-16T04:24:44;99197.06;;;17.29;100.00
36600;BME280;35385;55.668;37.508;2023-07-16T04:25:44;99203.84;;;17.25;100.00
36600;BME280;35385;55.668;37.508;2023-07-16T04:26:45;99198.97;;;17.21;100.00
36600;BME280;35385;55.668;37.508;2023-07-16T04:27:45;99199.09;;;17.27;100.00
36600;BME280;35385;55.668;37.508;2023-07-16T04:28:45;99196.34;;;17.36;100.00
36600;BME280;35385;55.668;37.508;2023-07-16T04:29:46;99211.47;;;17.45;100.00
36600;BME280;35385;55.668;37.508;2023-07-16T04:30:46;99207.00;;;17.52;100.00
36600;BME280;35385;55.668;37.508;2023-07-16T04:31:47;99211.91;;;17.48;100.00
36600;BME280;35385;55.668;37.508;2023-07-16T04:32:47;99208.75;;;17.45;100.00
36600;BME280;35385;55.668;37.508;2023-07-16T04:33:48;99212.09;;;17.47;100.00
36600;BME280;35385;55.668;37.508;2023-07-16T04:34:48;99209.78;;;17.44;100.00
36600;BME280;35385;55.668;37.508;2023-07-16T04:35:48;99206.41;;;17.42;100.00
36600;BME280;35385;55.668;37.508;2023-07-16T04:36:49;99213.69;;;17.41;100.00
36600;BME280;35385;55.668;37.508;2023-07-16T04:37:49;99207.78;;;17.38;100.00
36600;BME280;35385;55.668;37.508;2023-07-16T04:38:49;99210.13;;;17.41;100.00
36600;BME280;35385;55.668;37.508;2023-07-16T04:39:50;99208.03;;;17.51;100.00
36600;BME280;35385;55.668;37.508;2023-07-16T04:40:50;99206.28;;;17.58;100.00
36600;BME280;35385;55.668;37.508;2023-07-16T04:41:51;99209.59;;;17.68;100.00
36600;BME280;35385;55.668;37.508;2023-07-16T04:42:51;99204.84;;;17.70;100.00
36600;BME280;35385;55.668;37.508;2023-07-16T04:43:51;99210.25;;;17.70;100.00
36600;BME280;35385;55.668;37.508;2023-07-16T04:44:52;99206.91;;;17.68;100.00
36600;BME280;35385;55.668;37.508;2023-07-16T04:45:52;99203.75;;;17.56;100.00
36600;BME280;35385;55.668;37.508;2023-07-16T04:46:52;99204.97;;;17.54;100.00
36600;BME280;35385;55.668;37.508;2023-07-16T04:47:53;99201.28;;;17.47;100.00
36600;BME280;35385;55.668;37.508;2023-07-16T04:48:53;99200.72;;;17.37;100.00
36600;BME280;35385;55.668;37.508;2023-07-16T04:49:53;99206.41;;;17.19;100.00
36600;BME280;35385;55.668;37.508;2023-07-16T04:50:54;99206.13;;;17.14;100.00
36600;BME280;35385;55.668;37.508;2023-07-16T04:51:54;99204.44;;;17.13;100.00
36600;BME280;35385;55.668;37.508;2023-07-16T04:52:55;99204.13;;;17.08;100.00
36600;BME280;35385;55.668;37.508;2023-07-16T04:53:55;99203.44;;;17.14;100.00
36600;BME280;35385;55.668;37.508;2023-07-16T04:54:55;99208.00;;;17.13;100.00
36600;BME280;35385;55.668;37.508;2023-07-16T04:55:56;99209.19;;;17.11;100.00
36600;BME280;35385;55.668;37.508;2023-07-16T04:56:57;99210.34;;;17.16;100.00
36600;BME280;35385;55.668;37.508;2023-07-16T04:57:57;99206.06;;;17.22;100.00
36600;BME280;35385;55.668;37.508;2023-07-16T04:58:57;99211.94;;;17.25;100.00
36600;BME280;35385;55.668;37.508;2023-07-16T04:59:58;99211.97;;;17.17;100.00
36600;BME280;35385;55.668;37.508;2023-07-16T05:00:58;99210.50;;;17.15;100.00
36600;BME280;35385;55.668;37.508;2023-07-16T05:01:58;99200.66;;;17.22;100.00
36600;BME280;35385;55.668;37.508;2023-07-16T05:02:59;99207.88;;;17.29;100.00
36600;BME280;35385;55.668;37.508;2023-07-16T05:03:59;99206.28;;;17.35;100.00
36600;BME280;35385;55.668;37.508;2023-07-16T05:04:59;99213.00;;;17.39;100.00
36600;BME280;35385;55.668;37.508;2023-07-16T05:06:00;99206.78;;;17.39;100.00
36600;BME280;35385;55.668;37.508;2023-07-16T05:07:03;99219.06;;;17.41;100.00
36600;BME280;35385;55.668;37.508;2023-07-16T05:08:04;99211.06;;;17.48;100.00
36600;BME280;35385;55.668;37.508;2023-07-16T05:09:04;99205.97;;;17.53;100.00
36600;BME280;35385;55.668;37.508;2023-07-16T05:10:04;99219.47;;;17.53;100.00
36600;BME280;35385;55.668;37.508;2023-07-16T05:11:05;99219.13;;;17.56;100.00
36600;BME280;35385;55.668;37.508;2023-07-16T05:12:05;99219.00;;;17.49;100.00
36600;BME280;35385;55.668;37.508;2023-07-16T05:13:06;99219.75;;;17.43;100.00
36600;BME280;35385;55.668;37.508;2023-07-16T05:14:06;99212.88;;;17.32;100.00
36600;BME280;35385;55.668;37.508;2023-07-16T05:15:07;99219.19;;;17.25;100.00
36600;BME280;35385;55.668;37.508;2023-07-16T05:16:07;99214.81;;;17.24;100.00
36600;BME280;35385;55.668;37.508;2023-07-16T05:17:08;99213.09;;;17.31;100.00
36600;BME280;35385;55.668;37.508;2023-07-16T05:18:08;99221.38;;;17.29;100.00
36600;BME280;35385;55.668;37.508;2023-07-16T05:19:08;99213.63;;;17.26;100.00
36600;BME280;35385;55.668;37.508;2023-07-16T05:20:09;99219.03;;;17.26;100.00